Terminal Aerodrome Forecast
Issued by NWS

Home | Current Version | Previous Version | Text Only | Print | Product List | Glossary On
Versions: 1 2 3 4 5 6 7 8 9 10 11 12 13 14 15 16 17 18 19
000
FTAK31 PAJN 201700
TAFAPG
TAF
PAPG 201726Z 2018/2118 06003KT 6SM BCFG SCT002 BKN035
     FM201900 06006KT P6SM FEW010
     FM202100 06006KT P6SM SKC
     FM210300 VRB03KT P6SM SKC
     FM210900 00000KT 1/2SM FG OVC005
     FM211700 00000KT 2SM BCFG SCT005
      AMD LTD TO CLD VIS AND WIND 2106/2115=

USA.gov is the U.S. government's official web portal to all federal, state and local government web resources and services.